sensor_id;sensor_type;location;lat;lon;timestamp;temperature;humidity
7572;DHT22;3827;49.928;8.548;2023-03-21T00:02:25;8.90;99.90
7572;DHT22;3827;49.928;8.548;2023-03-21T00:04:52;9.10;99.90
7572;DHT22;3827;49.928;8.548;2023-03-21T00:07:20;8.90;99.90
7572;DHT22;3827;49.928;8.548;2023-03-21T00:09:47;9.10;99.90
7572;DHT22;3827;49.928;8.548;2023-03-21T00:12:13;8.90;99.90
7572;DHT22;3827;49.928;8.548;2023-03-21T00:14:41;8.90;99.90
7572;DHT22;3827;49.928;8.548;2023-03-21T00:17:09;8.90;99.90
7572;DHT22;3827;49.928;8.548;2023-03-21T00:19:36;8.90;99.90
7572;DHT22;3827;49.928;8.548;2023-03-21T00:22:03;8.90;99.90
7572;DHT22;3827;49.928;8.548;2023-03-21T00:24:32;8.90;99.90
7572;DHT22;3827;49.928;8.548;2023-03-21T00:26:59;8.90;99.90
7572;DHT22;3827;49.928;8.548;2023-03-21T00:29:25;9.30;99.90
7572;DHT22;3827;49.928;8.548;2023-03-21T00:31:52;8.80;99.90
7572;DHT22;3827;49.928;8.548;2023-03-21T00:34:19;8.80;99.90
7572;DHT22;3827;49.928;8.548;2023-03-21T00:36:46;8.70;99.90
7572;DHT22;3827;49.928;8.548;2023-03-21T00:39:12;8.70;99.90
7572;DHT22;3827;49.928;8.548;2023-03-21T00:41:41;8.70;99.90
7572;DHT22;3827;49.928;8.548;2023-03-21T00:44:08;8.60;99.90
7572;DHT22;3827;49.928;8.548;2023-03-21T00:46:36;8.60;99.90
7572;DHT22;3827;49.928;8.548;2023-03-21T00:49:02;8.50;99.90
7572;DHT22;3827;49.928;8.548;2023-03-21T00:51:29;8.50;99.90
7572;DHT22;3827;49.928;8.548;2023-03-21T00:53:57;8.50;99.90
7572;DHT22;3827;49.928;8.548;2023-03-21T00:56:24;8.60;99.90
7572;DHT22;3827;49.928;8.548;2023-03-21T00:58:52;8.60;99.90
7572;DHT22;3827;49.928;8.548;2023-03-21T01:01:19;8.60;99.90
7572;DHT22;3827;49.928;8.548;2023-03-21T01:03:46;8.60;99.90
7572;DHT22;3827;49.928;8.548;2023-03-21T01:06:17;9.10;99.90
7572;DHT22;3827;49.928;8.548;2023-03-21T01:08:46;8.60;99.90
7572;DHT22;3827;49.928;8.548;2023-03-21T01:11:15;8.60;99.90
7572;DHT22;3827;49.928;8.548;2023-03-21T01:13:42;8.50;99.90
7572;DHT22;3827;49.928;8.548;2023-03-21T01:16:10;8.50;99.90
7572;DHT22;3827;49.928;8.548;2023-03-21T01:18:39;8.50;99.90
7572;DHT22;3827;49.928;8.548;2023-03-21T01:21:08;8.50;99.90
7572;DHT22;3827;49.928;8.548;2023-03-21T01:23:37;8.50;99.90
7572;DHT22;3827;49.928;8.548;2023-03-21T01:26:04;8.80;99.90
7572;DHT22;3827;49.928;8.548;2023-03-21T01:28:34;8.50;99.90
7572;DHT22;3827;49.928;8.548;2023-03-21T01:31:02;8.50;99.90
7572;DHT22;3827;49.928;8.548;2023-03-21T01:33:32;8.40;99.90
7572;DHT22;3827;49.928;8.548;2023-03-21T01:35:59;8.30;99.90
7572;DHT22;3827;49.928;8.548;2023-03-21T01:38:27;8.20;99.90
7572;DHT22;3827;49.928;8.548;2023-03-21T01:40:53;8.10;99.90
7572;DHT22;3827;49.928;8.548;2023-03-21T01:43:26;8.10;99.90
7572;DHT22;3827;49.928;8.548;2023-03-21T01:49:10;7.80;99.90
7572;DHT22;3827;49.928;8.548;2023-03-21T01:51:41;7.70;99.90
7572;DHT22;3827;49.928;8.548;2023-03-21T01:54:13;7.60;99.90
7572;DHT22;3827;49.928;8.548;2023-03-21T01:56:42;7.50;99.90
7572;DHT22;3827;49.928;8.548;2023-03-21T01:59:15;7.40;99.90
7572;DHT22;3827;49.928;8.548;2023-03-21T02:01:43;7.30;99.90
7572;DHT22;3827;49.928;8.548;2023-03-21T02:04:12;7.20;99.90
7572;DHT22;3827;49.928;8.548;2023-03-21T02:06:43;7.20;99.90
7572;DHT22;3827;49.928;8.548;2023-03-21T02:09:15;7.00;99.90
7572;DHT22;3827;49.928;8.548;2023-03-21T02:11:45;7.00;99.90
7572;DHT22;3827;49.928;8.548;2023-03-21T02:14:14;7.00;99.90
7572;DHT22;3827;49.928;8.548;2023-03-21T02:16:49;7.00;99.90
7572;DHT22;3827;49.928;8.548;2023-03-21T02:19:44;6.90;99.90
7572;DHT22;3827;49.928;8.548;2023-03-21T02:25:42;6.80;99.90
7572;DHT22;3827;49.928;8.548;2023-03-21T02:28:16;6.70;99.90
7572;DHT22;3827;49.928;8.548;2023-03-21T02:31:04;6.70;99.90
7572;DHT22;3827;49.928;8.548;2023-03-21T02:33:56;6.50;99.90
7572;DHT22;3827;49.928;8.548;2023-03-21T02:36:46;6.50;99.90
7572;DHT22;3827;49.928;8.548;2023-03-21T02:39:17;6.50;99.90
7572;DHT22;3827;49.928;8.548;2023-03-21T02:41:50;6.60;99.90
7572;DHT22;3827;49.928;8.548;2023-03-21T02:44:22;6.50;99.90
7572;DHT22;3827;49.928;8.548;2023-03-21T02:46:55;6.50;99.90
7572;DHT22;3827;49.928;8.548;2023-03-21T02:49:26;6.50;99.90
7572;DHT22;3827;49.928;8.548;2023-03-21T02:51:57;6.40;99.90
7572;DHT22;3827;49.928;8.548;2023-03-21T02:54:25;6.40;99.90
7572;DHT22;3827;49.928;8.548;2023-03-21T02:56:54;6.40;99.90
7572;DHT22;3827;49.928;8.548;2023-03-21T02:59:23;6.40;99.90
7572;DHT22;3827;49.928;8.548;2023-03-21T03:01:53;6.30;99.90
7572;DHT22;3827;49.928;8.548;2023-03-21T03:04:21;6.40;99.90
7572;DHT22;3827;49.928;8.548;2023-03-21T03:07:04;6.40;99.90
7572;DHT22;3827;49.928;8.548;2023-03-21T03:09:46;6.50;99.90
7572;DHT22;3827;49.928;8.548;2023-03-21T03:12:26;6.50;99.90
7572;DHT22;3827;49.928;8.548;2023-03-21T03:14:59;6.60;99.90
7572;DHT22;3827;49.928;8.548;2023-03-21T03:17:38;6.60;99.90
7572;DHT22;3827;49.928;8.548;2023-03-21T03:20:19;6.70;99.90
7572;DHT22;3827;49.928;8.548;2023-03-21T03:22:55;7.10;99.90
7572;DHT22;3827;49.928;8.548;2023-03-21T03:25:27;6.60;99.90
7572;DHT22;3827;49.928;8.548;2023-03-21T03:27:57;6.60;99.90
7572;DHT22;3827;49.928;8.548;2023-03-21T03:30:24;6.60;99.90
7572;DHT22;3827;49.928;8.548;2023-03-21T03:32:54;6.50;99.90
7572;DHT22;3827;49.928;8.548;2023-03-21T03:35:23;6.50;99.90
7572;DHT22;3827;49.928;8.548;2023-03-21T03:37:54;6.50;99.90
7572;DHT22;3827;49.928;8.548;2023-03-21T03:40:25;6.50;99.90
7572;DHT22;3827;49.928;8.548;2023-03-21T03:42:59;6.50;99.90
7572;DHT22;3827;49.928;8.548;2023-03-21T03:45:30;6.50;99.90
7572;DHT22;3827;49.928;8.548;2023-03-21T03:48:03;6.50;99.90
7572;DHT22;3827;49.928;8.548;2023-03-21T03:50:36;6.50;99.90
7572;DHT22;3827;49.928;8.548;2023-03-21T03:53:13;6.60;99.90
7572;DHT22;3827;49.928;8.548;2023-03-21T03:55:42;6.60;99.90
7572;DHT22;3827;49.928;8.548;2023-03-21T03:58:09;6.70;99.90
7572;DHT22;3827;49.928;8.548;2023-03-21T04:00:38;6.70;99.90
7572;DHT22;3827;49.928;8.548;2023-03-21T04:03:05;6.70;99.90
7572;DHT22;3827;49.928;8.548;2023-03-21T04:05:34;6.70;99.90
7572;DHT22;3827;49.928;8.548;2023-03-21T04:08:01;6.80;99.90
7572;DHT22;3827;49.928;8.548;2023-03-21T04:10:29;6.80;99.90
7572;DHT22;3827;49.928;8.548;2023-03-21T04:12:56;6.90;99.90
7572;DHT22;3827;49.928;8.548;2023-03-21T04:15:23;6.90;99.90
7572;DHT22;3827;49.928;8.548;2023-03-21T04:17:49;6.90;99.90
7572;DHT22;3827;49.928;8.548;2023-03-21T04:20:16;7.00;99.90
7572;DHT22;3827;49.928;8.548;2023-03-21T04:22:43;7.00;99.90
7572;DHT22;3827;49.928;8.548;2023-03-21T04:25:10;7.00;99.90
7572;DHT22;3827;49.928;8.548;2023-03-21T04:27:39;6.90;99.90
7572;DHT22;3827;49.928;8.548;2023-03-21T04:30:07;6.90;99.90
7572;DHT22;3827;49.928;8.548;2023-03-21T04:32:36;6.90;99.90
7572;DHT22;3827;49.928;8.548;2023-03-21T04:35:04;6.80;99.90
7572;DHT22;3827;49.928;8.548;2023-03-21T04:37:33;6.80;99.90
7572;DHT22;3827;49.928;8.548;2023-03-21T04:40:02;6.80;99.90
7572;DHT22;3827;49.928;8.548;2023-03-21T04:42:33;6.90;99.90
7572;DHT22;3827;49.928;8.548;2023-03-21T04:45:02;6.90;99.90
7572;DHT22;3827;49.928;8.548;2023-03-21T04:47:29;6.90;99.90
7572;DHT22;3827;49.928;8.548;2023-03-21T04:49:56;7.00;99.90
7572;DHT22;3827;49.928;8.548;2023-03-21T04:52:23;7.00;99.90
7572;DHT22;3827;49.928;8.548;2023-03-21T04:54:50;7.00;99.90
7572;DHT22;3827;49.928;8.548;2023-03-21T04:57:17;7.00;99.90
7572;DHT22;3827;49.928;8.548;2023-03-21T04:59:43;7.10;99.90
7572;DHT22;3827;49.928;8.548;2023-03-21T05:02:12;7.10;99.90
7572;DHT22;3827;49.928;8.548;2023-03-21T05:04:40;7.20;99.90
7572;DHT22;3827;49.928;8.548;2023-03-21T05:07:07;7.20;99.90
7572;DHT22;3827;49.928;8.548;2023-03-21T05:09:33;7.20;99.90
7572;DHT22;3827;49.928;8.548;2023-03-21T05:12:00;7.50;99.90
7572;DHT22;3827;49.928;8.548;2023-03-21T05:14:27;7.10;99.90
7572;DHT22;3827;49.928;8.548;2023-03-21T05:17:03;7.10;99.90
7572;DHT22;3827;49.928;8.548;2023-03-21T05:19:31;7.10;99.90
7572;DHT22;3827;49.928;8.548;2023-03-21T05:22:02;7.10;99.90
7572;DHT22;3827;49.928;8.548;2023-03-21T05:24:30;7.00;99.90
7572;DHT22;3827;49.928;8.548;2023-03-21T05:26:57;6.90;99.90
7572;DHT22;3827;49.928;8.548;2023-03-21T05:29:27;6.90;99.90
7572;DHT22;3827;49.928;8.548;2023-03-21T05:31:54;6.90;99.90
7572;DHT22;3827;49.928;8.548;2023-03-21T05:34:23;6.80;99.90
7572;DHT22;3827;49.928;8.548;2023-03-21T05:36:53;6.90;99.90
7572;DHT22;3827;49.928;8.548;2023-03-21T05:39:20;6.70;99.90
7572;DHT22;3827;49.928;8.548;2023-03-21T05:41:48;6.70;99.90
7572;DHT22;3827;49.928;8.548;2023-03-21T05:44:15;6.70;99.90
7572;DHT22;3827;49.928;8.548;2023-03-21T05:46:41;6.60;99.90
7572;DHT22;3827;49.928;8.548;2023-03-21T05:49:09;6.60;99.90
7572;DHT22;3827;49.928;8.548;2023-03-21T05:51:36;6.90;99.90
7572;DHT22;3827;49.928;8.548;2023-03-21T05:54:05;6.50;99.90
7572;DHT22;3827;49.928;8.548;2023-03-21T05:56:32;6.60;99.90
7572;DHT22;3827;49.928;8.548;2023-03-21T05:58:58;6.50;99.90
7572;DHT22;3827;49.928;8.548;2023-03-21T06:01:25;6.60;99.90
7572;DHT22;3827;49.928;8.548;2023-03-21T06:03:52;6.60;99.90
7572;DHT22;3827;49.928;8.548;2023-03-21T06:06:19;6.60;99.90
7572;DHT22;3827;49.928;8.548;2023-03-21T06:08:46;7.10;99.90
7572;DHT22;3827;49.928;8.548;2023-03-21T06:11:19;6.70;99.90
7572;DHT22;3827;49.928;8.548;2023-03-21T06:13:49;6.80;99.90
7572;DHT22;3827;49.928;8.548;2023-03-21T06:16:15;6.90;99.90
7572;DHT22;3827;49.928;8.548;2023-03-21T06:18:42;7.10;99.90
7572;DHT22;3827;49.928;8.548;2023-03-21T06:21:09;7.30;99.90
7572;DHT22;3827;49.928;8.548;2023-03-21T06:23:36;7.40;1.00
7572;DHT22;3827;49.928;8.548;2023-03-21T06:26:04;7.50;10.60
7572;DHT22;3827;49.928;8.548;2023-03-21T06:28:32;7.50;99.90
7572;DHT22;3827;49.928;8.548;2023-03-21T06:30:59;7.50;99.90
7572;DHT22;3827;49.928;8.548;2023-03-21T06:33:26;7.60;99.90
7572;DHT22;3827;49.928;8.548;2023-03-21T06:35:54;7.80;99.90
7572;DHT22;3827;49.928;8.548;2023-03-21T06:38:22;8.00;99.90
7572;DHT22;3827;49.928;8.548;2023-03-21T06:40:49;8.10;99.90
7572;DHT22;3827;49.928;8.548;2023-03-21T06:43:16;8.30;1.00
7572;DHT22;3827;49.928;8.548;2023-03-21T06:45:44;8.30;99.90
7572;DHT22;3827;49.928;8.548;2023-03-21T06:48:11;8.50;2.90
7572;DHT22;3827;49.928;8.548;2023-03-21T06:50:38;8.40;1.00
7572;DHT22;3827;49.928;8.548;2023-03-21T06:53:05;8.40;1.00
7572;DHT22;3827;49.928;8.548;2023-03-21T06:55:31;8.40;1.00
7572;DHT22;3827;49.928;8.548;2023-03-21T06:57:58;8.40;1.00
7572;DHT22;3827;49.928;8.548;2023-03-21T07:00:25;8.50;99.90
7572;DHT22;3827;49.928;8.548;2023-03-21T07:02:54;8.80;99.90
7572;DHT22;3827;49.928;8.548;2023-03-21T07:05:20;9.10;1.00
7572;DHT22;3827;49.928;8.548;2023-03-21T07:07:47;9.40;99.90
7572;DHT22;3827;49.928;8.548;2023-03-21T07:10:14;10.00;1.00
7572;DHT22;3827;49.928;8.548;2023-03-21T07:12:41;9.70;1.00
7572;DHT22;3827;49.928;8.548;2023-03-21T07:15:09;9.80;99.90
7572;DHT22;3827;49.928;8.548;2023-03-21T07:17:36;9.80;99.90
7572;DHT22;3827;49.928;8.548;2023-03-21T07:20:05;10.00;99.90
7572;DHT22;3827;49.928;8.548;2023-03-21T07:22:33;10.10;1.00
7572;DHT22;3827;49.928;8.548;2023-03-21T07:25:00;10.20;1.00
7572;DHT22;3827;49.928;8.548;2023-03-21T07:27:27;10.20;1.00
7572;DHT22;3827;49.928;8.548;2023-03-21T07:29:53;10.40;1.00
7572;DHT22;3827;49.928;8.548;2023-03-21T07:32:20;10.50;1.00
7572;DHT22;3827;49.928;8.548;2023-03-21T07:34:47;10.70;1.00
7572;DHT22;3827;49.928;8.548;2023-03-21T07:37:15;10.80;1.00
7572;DHT22;3827;49.928;8.548;2023-03-21T07:39:42;11.00;1.00
7572;DHT22;3827;49.928;8.548;2023-03-21T07:42:09;11.40;1.00
7572;DHT22;3827;49.928;8.548;2023-03-21T07:44:37;11.60;99.90
7572;DHT22;3827;49.928;8.548;2023-03-21T07:47:04;11.60;99.90
7572;DHT22;3827;49.928;8.548;2023-03-21T07:49:31;11.70;99.90
7572;DHT22;3827;49.928;8.548;2023-03-21T07:51:58;11.70;99.90
7572;DHT22;3827;49.928;8.548;2023-03-21T07:54:28;11.70;99.90
7572;DHT22;3827;49.928;8.548;2023-03-21T07:56:55;11.70;99.90
7572;DHT22;3827;49.928;8.548;2023-03-21T07:59:22;11.80;99.90
7572;DHT22;3827;49.928;8.548;2023-03-21T08:01:49;12.00;99.90
7572;DHT22;3827;49.928;8.548;2023-03-21T08:04:16;12.20;99.90
7572;DHT22;3827;49.928;8.548;2023-03-21T08:06:43;12.30;99.90
7572;DHT22;3827;49.928;8.548;2023-03-21T08:09:10;12.80;99.90
7572;DHT22;3827;49.928;8.548;2023-03-21T08:11:38;12.30;99.90
7572;DHT22;3827;49.928;8.548;2023-03-21T08:14:06;12.50;99.90
7572;DHT22;3827;49.928;8.548;2023-03-21T08:16:33;12.60;99.90
7572;DHT22;3827;49.928;8.548;2023-03-21T08:18:59;12.60;99.90
7572;DHT22;3827;49.928;8.548;2023-03-21T08:21:26;12.80;99.90
7572;DHT22;3827;49.928;8.548;2023-03-21T08:23:53;12.70;99.90
7572;DHT22;3827;49.928;8.548;2023-03-21T08:26:20;12.80;99.90
7572;DHT22;3827;49.928;8.548;2023-03-21T08:28:52;13.10;99.90
7572;DHT22;3827;49.928;8.548;2023-03-21T08:31:19;13.20;89.00
7572;DHT22;3827;49.928;8.548;2023-03-21T08:33:46;13.00;81.40
7572;DHT22;3827;49.928;8.548;2023-03-21T08:36:15;13.10;76.20
7572;DHT22;3827;49.928;8.548;2023-03-21T08:38:42;13.10;76.60
7572;DHT22;3827;49.928;8.548;2023-03-21T08:41:10;13.40;72.20
7572;DHT22;3827;49.928;8.548;2023-03-21T08:43:37;13.70;63.90
7572;DHT22;3827;49.928;8.548;2023-03-21T08:46:06;13.80;13.40
7572;DHT22;3827;49.928;8.548;2023-03-21T08:48:32;13.70;3.10
7572;DHT22;3827;49.928;8.548;2023-03-21T08:51:03;13.70;1.40
7572;DHT22;3827;49.928;8.548;2023-03-21T08:53:30;13.80;1.00
7572;DHT22;3827;49.928;8.548;2023-03-21T08:55:57;13.40;1.00
7572;DHT22;3827;49.928;8.548;2023-03-21T08:58:23;13.70;1.00
7572;DHT22;3827;49.928;8.548;2023-03-21T09:00:50;13.70;1.00
7572;DHT22;3827;49.928;8.548;2023-03-21T09:03:18;13.70;1.00
7572;DHT22;3827;49.928;8.548;2023-03-21T09:05:45;13.90;1.00
7572;DHT22;3827;49.928;8.548;2023-03-21T09:08:12;14.00;1.00
7572;DHT22;3827;49.928;8.548;2023-03-21T09:10:39;14.00;1.00
7572;DHT22;3827;49.928;8.548;2023-03-21T09:13:06;14.20;1.00
7572;DHT22;3827;49.928;8.548;2023-03-21T09:15:33;14.40;1.00
7572;DHT22;3827;49.928;8.548;2023-03-21T09:18:00;14.40;50.40
7572;DHT22;3827;49.928;8.548;2023-03-21T09:20:39;14.00;63.80
7572;DHT22;3827;49.928;8.548;2023-03-21T09:23:07;13.40;85.80
7572;DHT22;3827;49.928;8.548;2023-03-21T09:25:35;13.70;81.60
7572;DHT22;3827;49.928;8.548;2023-03-21T09:28:03;13.90;65.90
7572;DHT22;3827;49.928;8.548;2023-03-21T09:30:32;13.90;49.50
7572;DHT22;3827;49.928;8.548;2023-03-21T09:32:59;14.10;1.00
7572;DHT22;3827;49.928;8.548;2023-03-21T09:35:28;14.20;1.00
7572;DHT22;3827;49.928;8.548;2023-03-21T09:37:57;14.10;1.00
7572;DHT22;3827;49.928;8.548;2023-03-21T09:40:38;13.60;1.00
7572;DHT22;3827;49.928;8.548;2023-03-21T09:43:14;13.90;1.00
7572;DHT22;3827;49.928;8.548;2023-03-21T09:45:49;13.80;1.00
7572;DHT22;3827;49.928;8.548;2023-03-21T09:48:23;13.80;1.00
7572;DHT22;3827;49.928;8.548;2023-03-21T09:50:57;14.10;1.00
7572;DHT22;3827;49.928;8.548;2023-03-21T09:53:28;14.30;1.00
7572;DHT22;3827;49.928;8.548;2023-03-21T09:55:59;14.50;1.00
7572;DHT22;3827;49.928;8.548;2023-03-21T09:58:30;14.40;1.00
7572;DHT22;3827;49.928;8.548;2023-03-21T10:01:03;14.60;1.00
7572;DHT22;3827;49.928;8.548;2023-03-21T10:03:33;14.60;1.00
7572;DHT22;3827;49.928;8.548;2023-03-21T10:06:04;14.70;1.00
7572;DHT22;3827;49.928;8.548;2023-03-21T10:08:36;14.70;1.00
7572;DHT22;3827;49.928;8.548;2023-03-21T10:11:10;14.70;1.00
7572;DHT22;3827;49.928;8.548;2023-03-21T10:13:41;15.00;1.00
7572;DHT22;3827;49.928;8.548;2023-03-21T10:16:12;14.90;1.00
7572;DHT22;3827;49.928;8.548;2023-03-21T10:18:41;14.80;1.00
7572;DHT22;3827;49.928;8.548;2023-03-21T10:21:14;14.90;1.00
7572;DHT22;3827;49.928;8.548;2023-03-21T10:23:45;15.00;1.00
7572;DHT22;3827;49.928;8.548;2023-03-21T10:26:12;14.90;1.00
7572;DHT22;3827;49.928;8.548;2023-03-21T10:28:40;14.90;1.00
7572;DHT22;3827;49.928;8.548;2023-03-21T10:31:10;15.00;1.00
7572;DHT22;3827;49.928;8.548;2023-03-21T10:33:43;15.00;1.00
7572;DHT22;3827;49.928;8.548;2023-03-21T10:36:13;15.10;1.00
7572;DHT22;3827;49.928;8.548;2023-03-21T10:38:46;14.90;1.00
7572;DHT22;3827;49.928;8.548;2023-03-21T10:41:14;14.90;1.00
7572;DHT22;3827;49.928;8.548;2023-03-21T10:43:42;14.70;1.00
7572;DHT22;3827;49.928;8.548;2023-03-21T10:46:12;14.60;1.00
7572;DHT22;3827;49.928;8.548;2023-03-21T10:48:42;14.30;1.00
7572;DHT22;3827;49.928;8.548;2023-03-21T10:51:14;14.00;1.00
7572;DHT22;3827;49.928;8.548;2023-03-21T10:53:47;13.60;97.50
7572;DHT22;3827;49.928;8.548;2023-03-21T10:56:16;13.20;99.90
7572;DHT22;3827;49.928;8.548;2023-03-21T10:58:44;13.00;99.90
7572;DHT22;3827;49.928;8.548;2023-03-21T11:01:20;12.80;99.90
7572;DHT22;3827;49.928;8.548;2023-03-21T11:03:55;12.70;99.90
7572;DHT22;3827;49.928;8.548;2023-03-21T11:06:27;12.50;99.90
7572;DHT22;3827;49.928;8.548;2023-03-21T11:08:59;12.40;1.00
7572;DHT22;3827;49.928;8.548;2023-03-21T11:11:32;12.40;1.00
7572;DHT22;3827;49.928;8.548;2023-03-21T11:14:01;12.30;1.00
7572;DHT22;3827;49.928;8.548;2023-03-21T11:16:35;12.20;1.00
7572;DHT22;3827;49.928;8.548;2023-03-21T11:19:13;12.20;1.00
7572;DHT22;3827;49.928;8.548;2023-03-21T11:21:40;12.40;29.50
7572;DHT22;3827;49.928;8.548;2023-03-21T11:24:12;12.00;99.90
7572;DHT22;3827;49.928;8.548;2023-03-21T11:26:41;11.90;1.00
7572;DHT22;3827;49.928;8.548;2023-03-21T11:29:28;11.90;99.90
7572;DHT22;3827;49.928;8.548;2023-03-21T11:31:57;11.80;99.90
7572;DHT22;3827;49.928;8.548;2023-03-21T11:34:29;11.80;1.00
7572;DHT22;3827;49.928;8.548;2023-03-21T11:37:00;11.70;1.00
7572;DHT22;3827;49.928;8.548;2023-03-21T11:39:31;11.60;99.90
7572;DHT22;3827;49.928;8.548;2023-03-21T11:41:59;11.60;1.00
7572;DHT22;3827;49.928;8.548;2023-03-21T11:44:28;11.60;1.00
7572;DHT22;3827;49.928;8.548;2023-03-21T11:46:55;11.60;1.00
7572;DHT22;3827;49.928;8.548;2023-03-21T11:49:23;11.70;99.90
7572;DHT22;3827;49.928;8.548;2023-03-21T11:52:07;11.60;99.90
7572;DHT22;3827;49.928;8.548;2023-03-21T11:54:51;11.60;99.90
7572;DHT22;3827;49.928;8.548;2023-03-21T11:57:28;11.70;1.00
7572;DHT22;3827;49.928;8.548;2023-03-21T12:00:01;11.80;1.00
7572;DHT22;3827;49.928;8.548;2023-03-21T12:02:49;11.80;1.00
7572;DHT22;3827;49.928;8.548;2023-03-21T12:05:26;12.00;99.90
7572;DHT22;3827;49.928;8.548;2023-03-21T12:07:59;12.10;99.90
7572;DHT22;3827;49.928;8.548;2023-03-21T12:10:35;12.20;1.00
7572;DHT22;3827;49.928;8.548;2023-03-21T12:13:30;12.10;1.00
7572;DHT22;3827;49.928;8.548;2023-03-21T12:16:08;12.30;21.50
7572;DHT22;3827;49.928;8.548;2023-03-21T12:18:54;12.20;1.00
7572;DHT22;3827;49.928;8.548;2023-03-21T12:21:28;12.10;1.00
7572;DHT22;3827;49.928;8.548;2023-03-21T12:24:01;12.20;1.00
7572;DHT22;3827;49.928;8.548;2023-03-21T12:26:33;12.80;1.00
7572;DHT22;3827;49.928;8.548;2023-03-21T12:29:13;12.30;1.00
7572;DHT22;3827;49.928;8.548;2023-03-21T12:31:49;12.30;1.00
7572;DHT22;3827;49.928;8.548;2023-03-21T12:34:37;12.40;1.00
7572;DHT22;3827;49.928;8.548;2023-03-21T12:37:18;12.50;1.00
7572;DHT22;3827;49.928;8.548;2023-03-21T12:39:49;12.60;10.80
7572;DHT22;3827;49.928;8.548;2023-03-21T12:42:52;12.60;1.00
7572;DHT22;3827;49.928;8.548;2023-03-21T12:45:26;12.70;1.00
7572;DHT22;3827;49.928;8.548;2023-03-21T12:47:59;12.90;1.00
7572;DHT22;3827;49.928;8.548;2023-03-21T12:50:31;13.00;1.00
7572;DHT22;3827;49.928;8.548;2023-03-21T12:53:08;12.90;1.00
7572;DHT22;3827;49.928;8.548;2023-03-21T12:55:38;12.90;1.00
7572;DHT22;3827;49.928;8.548;2023-03-21T12:58:12;12.80;1.00
7572;DHT22;3827;49.928;8.548;2023-03-21T13:00:44;12.70;99.90
7572;DHT22;3827;49.928;8.548;2023-03-21T13:03:16;12.60;99.90
7572;DHT22;3827;49.928;8.548;2023-03-21T13:05:48;12.40;99.90
7572;DHT22;3827;49.928;8.548;2023-03-21T13:08:19;12.50;1.00
7572;DHT22;3827;49.928;8.548;2023-03-21T13:10:48;12.50;1.00
7572;DHT22;3827;49.928;8.548;2023-03-21T13:13:21;12.50;1.00
7572;DHT22;3827;49.928;8.548;2023-03-21T13:16:01;12.40;99.90
7572;DHT22;3827;49.928;8.548;2023-03-21T13:18:35;12.20;1.00
7572;DHT22;3827;49.928;8.548;2023-03-21T13:21:10;12.10;99.90
7572;DHT22;3827;49.928;8.548;2023-03-21T13:23:39;12.10;1.00
7572;DHT22;3827;49.928;8.548;2023-03-21T13:26:08;12.10;1.00
7572;DHT22;3827;49.928;8.548;2023-03-21T13:28:39;11.90;1.00
7572;DHT22;3827;49.928;8.548;2023-03-21T13:31:18;11.80;1.00
7572;DHT22;3827;49.928;8.548;2023-03-21T13:33:46;11.70;99.90
7572;DHT22;3827;49.928;8.548;2023-03-21T13:36:15;11.70;91.30
7572;DHT22;3827;49.928;8.548;2023-03-21T13:38:49;11.70;1.00
7572;DHT22;3827;49.928;8.548;2023-03-21T13:41:18;11.70;1.00
7572;DHT22;3827;49.928;8.548;2023-03-21T13:43:53;11.70;1.00
7572;DHT22;3827;49.928;8.548;2023-03-21T13:46:44;11.70;1.00
7572;DHT22;3827;49.928;8.548;2023-03-21T13:49:25;11.60;99.90
7572;DHT22;3827;49.928;8.548;2023-03-21T13:51:54;11.60;1.00
7572;DHT22;3827;49.928;8.548;2023-03-21T13:54:27;11.60;1.00
7572;DHT22;3827;49.928;8.548;2023-03-21T13:56:57;11.60;1.00
7572;DHT22;3827;49.928;8.548;2023-03-21T13:59:43;11.60;1.00
7572;DHT22;3827;49.928;8.548;2023-03-21T14:02:31;11.60;1.00
7572;DHT22;3827;49.928;8.548;2023-03-21T14:05:00;11.60;99.90
7572;DHT22;3827;49.928;8.548;2023-03-21T14:07:30;11.60;99.90
7572;DHT22;3827;49.928;8.548;2023-03-21T14:10:01;11.60;99.90
7572;DHT22;3827;49.928;8.548;2023-03-21T14:12:30;11.60;99.90
7572;DHT22;3827;49.928;8.548;2023-03-21T14:15:07;11.60;99.90
7572;DHT22;3827;49.928;8.548;2023-03-21T14:17:49;11.50;99.90
7572;DHT22;3827;49.928;8.548;2023-03-21T14:20:20;11.40;99.90
7572;DHT22;3827;49.928;8.548;2023-03-21T14:22:48;11.40;99.90
7572;DHT22;3827;49.928;8.548;2023-03-21T14:25:18;11.30;99.90
7572;DHT22;3827;49.928;8.548;2023-03-21T14:27:48;11.30;99.90
7572;DHT22;3827;49.928;8.548;2023-03-21T14:30:22;11.30;99.90
7572;DHT22;3827;49.928;8.548;2023-03-21T14:32:53;11.30;99.90
7572;DHT22;3827;49.928;8.548;2023-03-21T14:35:22;11.40;99.90
7572;DHT22;3827;49.928;8.548;2023-03-21T14:37:50;11.30;99.90
7572;DHT22;3827;49.928;8.548;2023-03-21T14:40:21;11.30;99.90
7572;DHT22;3827;49.928;8.548;2023-03-21T14:42:49;11.30;99.90
7572;DHT22;3827;49.928;8.548;2023-03-21T14:45:20;11.20;99.90
7572;DHT22;3827;49.928;8.548;2023-03-21T14:47:57;11.20;99.90
7572;DHT22;3827;49.928;8.548;2023-03-21T14:50:29;11.20;99.90
7572;DHT22;3827;49.928;8.548;2023-03-21T14:52:58;11.40;99.90
7572;DHT22;3827;49.928;8.548;2023-03-21T14:55:26;11.40;99.90
7572;DHT22;3827;49.928;8.548;2023-03-21T14:57:54;11.40;99.90
7572;DHT22;3827;49.928;8.548;2023-03-21T15:00:26;11.40;99.90
7572;DHT22;3827;49.928;8.548;2023-03-21T15:02:57;11.50;99.90
7572;DHT22;3827;49.928;8.548;2023-03-21T15:05:27;11.60;99.90
7572;DHT22;3827;49.928;8.548;2023-03-21T15:07:57;11.60;99.90
7572;DHT22;3827;49.928;8.548;2023-03-21T15:10:25;11.70;99.90
7572;DHT22;3827;49.928;8.548;2023-03-21T15:12:55;11.80;99.90
7572;DHT22;3827;49.928;8.548;2023-03-21T15:15:25;11.90;99.90
7572;DHT22;3827;49.928;8.548;2023-03-21T15:17:54;11.90;99.90
7572;DHT22;3827;49.928;8.548;2023-03-21T15:20:25;11.90;99.90
7572;DHT22;3827;49.928;8.548;2023-03-21T15:22:55;11.90;99.90
7572;DHT22;3827;49.928;8.548;2023-03-21T15:25:25;11.90;99.90
7572;DHT22;3827;49.928;8.548;2023-03-21T15:27:54;12.00;99.90
7572;DHT22;3827;49.928;8.548;2023-03-21T15:30:25;11.90;99.90
7572;DHT22;3827;49.928;8.548;2023-03-21T15:32:53;12.00;22.30
7572;DHT22;3827;49.928;8.548;2023-03-21T15:35:26;12.00;1.00
7572;DHT22;3827;49.928;8.548;2023-03-21T15:37:55;12.00;1.00
7572;DHT22;3827;49.928;8.548;2023-03-21T15:40:24;12.00;1.00
7572;DHT22;3827;49.928;8.548;2023-03-21T15:43:04;12.00;99.90
7572;DHT22;3827;49.928;8.548;2023-03-21T15:45:33;11.90;1.00
7572;DHT22;3827;49.928;8.548;2023-03-21T15:48:02;11.80;99.90
7572;DHT22;3827;49.928;8.548;2023-03-21T15:50:34;11.90;18.60
7572;DHT22;3827;49.928;8.548;2023-03-21T15:53:05;11.80;1.00
7572;DHT22;3827;49.928;8.548;2023-03-21T15:55:39;11.80;1.00
7572;DHT22;3827;49.928;8.548;2023-03-21T15:58:13;11.80;1.00
7572;DHT22;3827;49.928;8.548;2023-03-21T16:00:48;11.80;1.00
7572;DHT22;3827;49.928;8.548;2023-03-21T16:03:20;11.60;99.90
7572;DHT22;3827;49.928;8.548;2023-03-21T16:06:02;11.60;99.90
7572;DHT22;3827;49.928;8.548;2023-03-21T16:08:32;11.60;1.00
7572;DHT22;3827;49.928;8.548;2023-03-21T16:11:06;11.50;19.10
7572;DHT22;3827;49.928;8.548;2023-03-21T16:13:34;11.60;99.90
7572;DHT22;3827;49.928;8.548;2023-03-21T16:16:02;11.60;99.90
7572;DHT22;3827;49.928;8.548;2023-03-21T16:18:29;11.70;1.00
7572;DHT22;3827;49.928;8.548;2023-03-21T16:20:56;11.70;99.90
7572;DHT22;3827;49.928;8.548;2023-03-21T16:23:24;11.70;68.30
7572;DHT22;3827;49.928;8.548;2023-03-21T16:25:51;11.70;99.90
7572;DHT22;3827;49.928;8.548;2023-03-21T16:28:22;11.60;99.90
7572;DHT22;3827;49.928;8.548;2023-03-21T16:30:49;11.60;99.90
7572;DHT22;3827;49.928;8.548;2023-03-21T16:33:17;11.70;1.00
7572;DHT22;3827;49.928;8.548;2023-03-21T16:35:44;11.60;1.00
7572;DHT22;3827;49.928;8.548;2023-03-21T16:38:12;11.50;65.50
7572;DHT22;3827;49.928;8.548;2023-03-21T16:40:40;11.50;99.90
7572;DHT22;3827;49.928;8.548;2023-03-21T16:43:07;11.50;99.90